createdAt,value
2018-07-07T10:56:27.388Z,25.30
2018-07-07T10:58:56.503Z,25.20
2018-07-07T11:01:25.268Z,25.30
2018-07-07T11:03:55.224Z,25.20
2018-07-07T11:06:24.032Z,25.30
2018-07-07T11:08:53.846Z,25.50
2018-07-07T11:11:22.884Z,25.70
2018-07-07T11:13:51.736Z,25.70
2018-07-07T11:16:20.616Z,25.50
2018-07-07T11:18:50.416Z,25.50
2018-07-07T11:21:19.304Z,25.70
2018-07-07T11:23:48.145Z,25.70
2018-07-07T11:26:18.037Z,25.70
2018-07-07T11:28:46.872Z,25.90
2018-07-07T11:31:15.635Z,26.00
2018-07-07T11:33:44.429Z,26.30
2018-07-07T11:38:41.741Z,26.40
2018-07-07T11:43:40.417Z,26.50
2018-07-07T11:46:09.344Z,26.60
2018-07-07T11:48:38.336Z,26.50
2018-07-07T11:53:35.764Z,26.70
2018-07-07T11:56:04.657Z,26.60
2018-07-07T11:58:33.525Z,27.00
2018-07-07T12:01:03.430Z,27.10
2018-07-07T12:03:32.340Z,27.20
2018-07-07T12:06:01.116Z,27.30
2018-07-07T12:08:29.931Z,27.40
2018-07-07T12:13:27.194Z,27.60
2018-07-07T12:15:55.985Z,27.50
2018-07-07T12:18:24.872Z,27.60
2018-07-07T12:20:53.744Z,27.60
2018-07-07T12:23:22.640Z,27.80
2018-07-07T12:25:51.540Z,28.00
2018-07-07T12:28:21.428Z,28.00
2018-07-07T12:30:50.332Z,28.00
2018-07-07T12:33:19.324Z,28.00
2018-07-07T12:35:48.405Z,28.10
2018-07-07T12:38:17.208Z,28.20
2018-07-07T12:40:46.114Z,28.00
2018-07-07T12:43:14.904Z,28.10
2018-07-07T12:48:12.181Z,28.30
2018-07-07T12:50:40.967Z,28.50
2018-07-07T12:53:09.924Z,28.90
2018-07-07T12:55:39.736Z,29.20
2018-07-07T12:58:08.560Z,29.40
2018-07-07T13:00:37.329Z,29.60
2018-07-07T13:03:06.152Z,29.60
2018-07-07T13:05:35.008Z,29.90
2018-07-07T13:08:03.788Z,29.90
2018-07-07T13:10:32.620Z,30.20
2018-07-07T13:13:01.507Z,30.20
2018-07-07T13:15:30.276Z,30.30
2018-07-07T13:32:49.972Z,31.20
2018-07-07T13:37:47.248Z,31.40
2018-07-07T13:40:16.100Z,31.50
2018-07-07T13:42:44.870Z,31.60
2018-07-07T13:50:11.557Z,31.80
2018-07-07T13:52:40.352Z,31.90
2018-07-07T13:57:37.648Z,32.00
2018-07-07T14:00:06.540Z,32.00
2018-07-07T14:02:35.368Z,32.20
2018-07-07T14:05:04.184Z,32.30
2018-07-07T14:07:34.108Z,32.40
2018-07-07T14:10:02.884Z,32.60
2018-07-07T14:15:00.324Z,32.70
2018-07-07T14:22:26.184Z,33.00
2018-07-07T14:24:55.223Z,33.00
2018-07-07T14:27:25.025Z,33.10
2018-07-07T14:29:53.803Z,33.20
2018-07-07T14:32:22.611Z,33.30
2018-07-07T14:34:51.452Z,33.40
2018-07-07T14:37:21.251Z,33.50
2018-07-07T14:39:55.968Z,33.60
2018-07-07T14:42:44.640Z,33.60
2018-07-07T14:45:16.800Z,33.60
2018-07-07T14:47:47.019Z,33.80
2018-07-07T14:52:45.072Z,33.90
2018-07-07T14:55:14.623Z,33.90
2018-07-07T14:57:44.107Z,34.00
2018-07-07T15:00:17.091Z,34.00
2018-07-07T15:02:46.699Z,34.10
2018-07-07T15:05:15.520Z,34.10
2018-07-07T15:07:44.579Z,34.20
2018-07-07T15:10:14.092Z,34.20
2018-07-07T15:12:43.189Z,34.30
2018-07-07T15:15:12.380Z,34.30
2018-07-07T15:17:42.187Z,34.40
2018-07-07T15:20:11.011Z,34.50
2018-07-07T15:22:39.835Z,34.50
2018-07-07T15:25:08.865Z,34.60
2018-07-07T15:27:37.694Z,34.60
2018-07-07T15:30:07.635Z,34.70
2018-07-07T15:32:36.443Z,34.70
2018-07-07T15:35:05.255Z,34.80
2018-07-07T15:37:34.104Z,34.90
2018-07-07T15:40:02.974Z,34.80
2018-07-07T15:42:31.719Z,34.90
2018-07-07T15:45:00.527Z,35.00
2018-07-07T15:47:29.307Z,35.00
2018-07-07T15:49:58.264Z,35.00
2018-07-07T15:52:27.109Z,35.10
2018-07-07T15:57:24.348Z,35.10
2018-07-07T16:02:21.627Z,34.90
2018-07-07T16:04:50.419Z,35.10
2018-07-07T16:07:19.199Z,35.20
2018-07-07T16:09:48.006Z,35.20
2018-07-07T16:12:16.780Z,35.30
2018-07-07T16:14:45.563Z,35.30
2018-07-07T16:17:14.383Z,35.30
2018-07-07T16:19:43.139Z,35.40
2018-07-07T16:22:11.977Z,35.40
2018-07-07T16:24:40.859Z,35.40
2018-07-07T16:27:09.599Z,35.30
2018-07-07T16:29:38.390Z,35.30
2018-07-07T16:32:07.199Z,35.30
2018-07-07T16:34:36.000Z,35.30
2018-07-07T16:37:04.831Z,35.30
2018-07-07T16:39:33.782Z,35.30
2018-07-07T16:42:02.539Z,35.20
2018-07-07T16:44:31.759Z,35.20
2018-07-07T16:47:02.447Z,35.00
2018-07-07T16:49:31.477Z,35.00
2018-07-07T16:54:29.569Z,34.90
2018-07-07T16:56:58.447Z,34.80
2018-07-07T16:59:28.343Z,34.70
2018-07-07T17:01:57.512Z,34.60
2018-07-07T17:04:26.383Z,34.50
2018-07-07T17:09:24.497Z,34.30
2018-07-07T17:11:53.465Z,34.30
2018-07-07T17:16:51.320Z,34.10
2018-07-07T17:21:48.648Z,33.90
2018-07-07T17:24:17.505Z,33.80
2018-07-07T17:26:46.864Z,33.70
2018-07-07T17:29:15.731Z,33.50
2018-07-07T17:31:45.256Z,33.30
2018-07-07T17:34:14.167Z,33.20
2018-07-07T17:36:43.236Z,32.90
2018-07-07T17:39:12.299Z,32.60
2018-07-07T17:41:41.207Z,32.40
2018-07-07T17:44:10.115Z,32.20
2018-07-07T17:46:39.775Z,32.00
2018-07-07T17:49:08.626Z,31.80
2018-07-07T17:51:37.394Z,31.60
2018-07-07T17:56:35.463Z,31.00
2018-07-07T18:04:02.552Z,30.40
2018-07-07T18:06:31.428Z,30.20
2018-07-07T18:09:00.307Z,30.00
2018-07-07T18:11:29.252Z,29.80
2018-07-07T18:13:58.102Z,29.50
2018-07-07T18:16:26.903Z,29.30
2018-07-07T18:21:24.360Z,28.90
2018-07-07T18:23:53.287Z,28.70
2018-07-07T18:28:50.755Z,28.30
2018-07-07T18:31:19.634Z,28.20
2018-07-07T18:36:16.991Z,27.90
2018-07-07T18:38:45.895Z,27.70
2018-07-07T18:41:14.776Z,27.50
2018-07-07T18:43:43.667Z,27.40
2018-07-07T18:46:12.531Z,27.10
2018-07-07T18:48:41.451Z,27.00
2018-07-07T18:53:38.931Z,26.70
2018-07-07T18:56:08.886Z,26.60
2018-07-07T18:58:37.659Z,26.40
2018-07-07T19:01:06.551Z,26.20
2018-07-07T19:03:35.414Z,26.10
2018-07-07T19:06:04.282Z,25.90
2018-07-07T19:08:33.163Z,25.70
2018-07-07T19:11:02.051Z,25.60
2018-07-07T19:13:31.354Z,25.40
2018-07-07T19:16:00.196Z,25.30
2018-07-07T19:18:29.058Z,25.20
2018-07-07T19:21:03.434Z,25.00
2018-07-07T19:23:37.759Z,24.90
2018-07-07T19:26:12.054Z,24.70
2018-07-07T19:28:40.930Z,24.50
2018-07-07T19:31:09.733Z,24.40
2018-07-07T19:33:44.962Z,24.30
2018-07-07T19:36:19.310Z,24.10
2018-07-07T19:38:48.222Z,24.00
2018-07-07T19:41:17.158Z,23.90
2018-07-07T19:43:45.978Z,23.80
2018-07-07T19:48:43.298Z,23.50
2018-07-07T19:53:40.795Z,23.20
2018-07-07T19:56:09.702Z,23.10
2018-07-07T19:58:38.489Z,22.90
2018-07-07T20:06:04.449Z,22.60
2018-07-07T20:08:34.274Z,22.50
2018-07-07T20:11:03.191Z,22.30
2018-07-07T20:13:32.054Z,22.20
2018-07-07T20:16:10.546Z,22.10
2018-07-07T20:21:50.766Z,21.80
2018-07-07T20:24:22.359Z,21.70
2018-07-07T20:34:24.459Z,21.20
2018-07-07T20:36:53.746Z,21.10
2018-07-07T20:39:22.827Z,21.00
2018-07-07T20:41:52.466Z,20.90
2018-07-07T20:44:21.329Z,20.80
2018-07-07T20:46:50.413Z,20.70
2018-07-07T20:49:20.270Z,20.60
2018-07-07T20:51:49.133Z,20.50
2018-07-07T20:54:18.025Z,20.40
2018-07-07T20:56:46.951Z,20.30
2018-07-07T21:01:44.404Z,20.10
2018-07-07T21:04:13.361Z,20.00
2018-07-07T21:06:42.245Z,19.90
2018-07-07T21:09:11.142Z,19.80
2018-07-07T21:11:40.050Z,19.70
2018-07-07T21:14:08.946Z,19.60
2018-07-07T21:26:31.791Z,19.10
2018-07-07T21:29:01.606Z,19.10
2018-07-07T21:31:30.490Z,19.00
2018-07-07T21:33:59.300Z,18.90
2018-07-07T21:36:28.367Z,18.80
2018-07-07T21:38:57.198Z,18.70
2018-07-07T21:41:26.050Z,18.60
2018-07-07T21:46:23.494Z,18.50
2018-07-07T21:48:52.358Z,18.40
2018-07-07T21:51:21.254Z,18.30
2018-07-07T21:53:50.534Z,18.20
2018-07-07T21:56:19.218Z,18.20
2018-07-07T21:58:52.314Z,18.10
2018-07-07T22:01:58.382Z,18.00
2018-07-07T22:12:09.618Z,17.70
2018-07-07T22:14:38.479Z,17.60
2018-07-07T22:17:07.375Z,17.50
2018-07-07T22:19:36.229Z,17.50
2018-07-07T22:22:06.949Z,17.40
2018-07-07T22:24:35.953Z,17.30
2018-07-07T22:27:06.829Z,17.20
2018-07-07T22:29:35.801Z,17.10
2018-07-07T22:32:05.882Z,17.10
2018-07-07T22:39:39.978Z,16.80
2018-07-07T22:42:10.197Z,16.80
2018-07-07T22:44:40.097Z,16.70
2018-07-07T22:47:08.899Z,16.60
2018-07-07T22:54:36.561Z,16.50
2018-07-07T22:57:05.461Z,16.40
2018-07-07T22:59:34.314Z,16.40
2018-07-07T23:02:03.178Z,16.30
2018-07-07T23:04:32.529Z,16.20
2018-07-07T23:09:29.873Z,16.10
2018-07-07T23:11:58.793Z,16.00
2018-07-07T23:14:27.713Z,16.00
2018-07-07T23:16:58.405Z,15.90
2018-07-07T23:19:27.425Z,15.80
2018-07-07T23:21:56.689Z,15.80
2018-07-07T23:29:23.729Z,15.50
2018-07-07T23:34:22.086Z,15.40
2018-07-07T23:36:50.953Z,15.40
2018-07-07T23:39:19.814Z,15.30
2018-07-07T23:41:48.720Z,15.30
2018-07-07T23:44:17.605Z,15.20
2018-07-07T23:46:46.514Z,15.20
2018-07-07T23:51:43.973Z,15.10
2018-07-07T23:54:12.873Z,15.00
2018-07-07T23:59:10.237Z,14.90
